sensor_id;sensor_type;location;lat;lon;timestamp;pressure;altitude;pressure_sealevel;temperature
13570;BMP180;6856;51.460;7.158;2023-06-10T00:00:40;100365.00;;;27.50
13570;BMP180;6856;51.460;7.158;2023-06-10T00:03:14;100377.00;;;27.40
13570;BMP180;6856;51.460;7.158;2023-06-10T00:05:50;100367.00;;;27.40
13570;BMP180;6856;51.460;7.158;2023-06-10T00:08:24;100370.00;;;27.40
13570;BMP180;6856;51.460;7.158;2023-06-10T00:10:58;100370.00;;;27.40
13570;BMP180;6856;51.460;7.158;2023-06-10T00:13:33;100373.00;;;27.30
13570;BMP180;6856;51.460;7.158;2023-06-10T00:16:08;100371.00;;;27.30
13570;BMP180;6856;51.460;7.158;2023-06-10T00:18:45;100381.00;;;27.20
13570;BMP180;6856;51.460;7.158;2023-06-10T00:21:24;100374.00;;;27.20
13570;BMP180;6856;51.460;7.158;2023-06-10T00:23:58;100367.00;;;27.20
13570;BMP180;6856;51.460;7.158;2023-06-10T00:26:36;100364.00;;;27.10
13570;BMP180;6856;51.460;7.158;2023-06-10T00:29:11;100362.00;;;27.10
13570;BMP180;6856;51.460;7.158;2023-06-10T00:31:47;100366.00;;;27.10
13570;BMP180;6856;51.460;7.158;2023-06-10T00:34:22;100370.00;;;27.10
13570;BMP180;6856;51.460;7.158;2023-06-10T00:36:58;100370.00;;;27.00
13570;BMP180;6856;51.460;7.158;2023-06-10T00:39:31;100371.00;;;27.00
13570;BMP180;6856;51.460;7.158;2023-06-10T00:42:08;100375.00;;;27.00
13570;BMP180;6856;51.460;7.158;2023-06-10T00:44:42;100377.00;;;27.00
13570;BMP180;6856;51.460;7.158;2023-06-10T00:47:17;100375.00;;;26.90
13570;BMP180;6856;51.460;7.158;2023-06-10T00:49:52;100373.00;;;26.90
13570;BMP180;6856;51.460;7.158;2023-06-10T00:52:29;100358.00;;;26.90
13570;BMP180;6856;51.460;7.158;2023-06-10T00:55:04;100382.00;;;26.80
13570;BMP180;6856;51.460;7.158;2023-06-10T00:57:41;100381.00;;;26.80
13570;BMP180;6856;51.460;7.158;2023-06-10T01:00:18;100384.00;;;26.80
13570;BMP180;6856;51.460;7.158;2023-06-10T01:02:54;100384.00;;;26.70
13570;BMP180;6856;51.460;7.158;2023-06-10T01:05:28;100378.00;;;26.70
13570;BMP180;6856;51.460;7.158;2023-06-10T01:08:17;100377.00;;;26.70
13570;BMP180;6856;51.460;7.158;2023-06-10T01:11:00;100367.00;;;26.60
13570;BMP180;6856;51.460;7.158;2023-06-10T01:13:38;100378.00;;;26.60
13570;BMP180;6856;51.460;7.158;2023-06-10T01:16:14;100378.00;;;26.60
13570;BMP180;6856;51.460;7.158;2023-06-10T01:18:49;100380.00;;;26.50
13570;BMP180;6856;51.460;7.158;2023-06-10T01:21:26;100380.00;;;26.50
13570;BMP180;6856;51.460;7.158;2023-06-10T01:24:00;100378.00;;;26.50
13570;BMP180;6856;51.460;7.158;2023-06-10T01:26:35;100385.00;;;26.40
13570;BMP180;6856;51.460;7.158;2023-06-10T01:29:18;100388.00;;;26.40
13570;BMP180;6856;51.460;7.158;2023-06-10T01:32:04;100384.00;;;26.40
13570;BMP180;6856;51.460;7.158;2023-06-10T01:34:42;100388.00;;;26.40
13570;BMP180;6856;51.460;7.158;2023-06-10T01:37:21;100390.00;;;26.30
13570;BMP180;6856;51.460;7.158;2023-06-10T01:39:59;100389.00;;;26.20
13570;BMP180;6856;51.460;7.158;2023-06-10T01:42:38;100389.00;;;26.20
13570;BMP180;6856;51.460;7.158;2023-06-10T01:45:12;100384.00;;;26.20
13570;BMP180;6856;51.460;7.158;2023-06-10T01:47:47;100387.00;;;26.20
13570;BMP180;6856;51.460;7.158;2023-06-10T01:50:22;100382.00;;;26.20
13570;BMP180;6856;51.460;7.158;2023-06-10T01:53:00;100383.00;;;26.10
13570;BMP180;6856;51.460;7.158;2023-06-10T01:55:35;100375.00;;;26.10
13570;BMP180;6856;51.460;7.158;2023-06-10T01:58:09;100386.00;;;26.10
13570;BMP180;6856;51.460;7.158;2023-06-10T02:00:43;100391.00;;;26.00
13570;BMP180;6856;51.460;7.158;2023-06-10T02:03:18;100380.00;;;26.00
13570;BMP180;6856;51.460;7.158;2023-06-10T02:05:52;100386.00;;;26.00
13570;BMP180;6856;51.460;7.158;2023-06-10T02:08:29;100384.00;;;26.00
13570;BMP180;6856;51.460;7.158;2023-06-10T02:11:04;100389.00;;;25.90
13570;BMP180;6856;51.460;7.158;2023-06-10T02:13:39;100382.00;;;25.90
13570;BMP180;6856;51.460;7.158;2023-06-10T02:16:14;100389.00;;;25.90
13570;BMP180;6856;51.460;7.158;2023-06-10T02:18:49;100365.00;;;25.80
13570;BMP180;6856;51.460;7.158;2023-06-10T02:21:23;100391.00;;;25.80
13570;BMP180;6856;51.460;7.158;2023-06-10T02:23:58;100384.00;;;25.80
13570;BMP180;6856;51.460;7.158;2023-06-10T02:26:32;100392.00;;;25.80
13570;BMP180;6856;51.460;7.158;2023-06-10T02:29:06;100390.00;;;25.80
13570;BMP180;6856;51.460;7.158;2023-06-10T02:31:41;100391.00;;;25.70
13570;BMP180;6856;51.460;7.158;2023-06-10T02:34:15;100389.00;;;25.70
13570;BMP180;6856;51.460;7.158;2023-06-10T02:36:48;100393.00;;;25.70
13570;BMP180;6856;51.460;7.158;2023-06-10T02:39:25;100399.00;;;25.60
13570;BMP180;6856;51.460;7.158;2023-06-10T02:41:59;100394.00;;;25.60
13570;BMP180;6856;51.460;7.158;2023-06-10T02:44:35;100397.00;;;25.60
13570;BMP180;6856;51.460;7.158;2023-06-10T02:47:10;100399.00;;;25.60
13570;BMP180;6856;51.460;7.158;2023-06-10T02:49:44;100393.00;;;25.50
13570;BMP180;6856;51.460;7.158;2023-06-10T02:52:18;100391.00;;;25.50
13570;BMP180;6856;51.460;7.158;2023-06-10T02:54:54;100387.00;;;25.50
13570;BMP180;6856;51.460;7.158;2023-06-10T02:57:27;100389.00;;;25.40
13570;BMP180;6856;51.460;7.158;2023-06-10T03:00:03;100391.00;;;25.40
13570;BMP180;6856;51.460;7.158;2023-06-10T03:02:43;100387.00;;;25.40
13570;BMP180;6856;51.460;7.158;2023-06-10T03:05:18;100382.00;;;25.40
13570;BMP180;6856;51.460;7.158;2023-06-10T03:07:52;100387.00;;;25.30
13570;BMP180;6856;51.460;7.158;2023-06-10T03:10:28;100388.00;;;25.30
13570;BMP180;6856;51.460;7.158;2023-06-10T03:13:02;100380.00;;;25.20
13570;BMP180;6856;51.460;7.158;2023-06-10T03:15:36;100379.00;;;25.20
13570;BMP180;6856;51.460;7.158;2023-06-10T03:18:11;100387.00;;;25.20
13570;BMP180;6856;51.460;7.158;2023-06-10T03:20:45;100398.00;;;25.20
13570;BMP180;6856;51.460;7.158;2023-06-10T03:23:19;100388.00;;;25.10
13570;BMP180;6856;51.460;7.158;2023-06-10T03:25:59;100384.00;;;25.10
13570;BMP180;6856;51.460;7.158;2023-06-10T03:28:34;100394.00;;;25.10
13570;BMP180;6856;51.460;7.158;2023-06-10T03:31:08;100390.00;;;25.10
13570;BMP180;6856;51.460;7.158;2023-06-10T03:33:43;100388.00;;;25.10
13570;BMP180;6856;51.460;7.158;2023-06-10T03:36:17;100399.00;;;25.10
13570;BMP180;6856;51.460;7.158;2023-06-10T03:38:51;100386.00;;;25.00
13570;BMP180;6856;51.460;7.158;2023-06-10T03:41:27;100397.00;;;25.00
13570;BMP180;6856;51.460;7.158;2023-06-10T03:44:04;100407.00;;;25.00
13570;BMP180;6856;51.460;7.158;2023-06-10T03:46:43;100403.00;;;25.00
13570;BMP180;6856;51.460;7.158;2023-06-10T03:49:17;100406.00;;;24.90
13570;BMP180;6856;51.460;7.158;2023-06-10T03:51:52;100401.00;;;24.90
13570;BMP180;6856;51.460;7.158;2023-06-10T03:54:27;100382.00;;;24.90
13570;BMP180;6856;51.460;7.158;2023-06-10T03:57:03;100414.00;;;24.90
13570;BMP180;6856;51.460;7.158;2023-06-10T03:59:38;100415.00;;;24.90
13570;BMP180;6856;51.460;7.158;2023-06-10T04:02:13;100399.00;;;24.80
13570;BMP180;6856;51.460;7.158;2023-06-10T04:04:47;100383.00;;;24.80
13570;BMP180;6856;51.460;7.158;2023-06-10T04:07:22;100417.00;;;24.80
13570;BMP180;6856;51.460;7.158;2023-06-10T04:09:57;100420.00;;;24.80
13570;BMP180;6856;51.460;7.158;2023-06-10T04:12:33;100418.00;;;24.70
13570;BMP180;6856;51.460;7.158;2023-06-10T04:15:08;100420.00;;;24.70
13570;BMP180;6856;51.460;7.158;2023-06-10T04:17:43;100425.00;;;24.70
13570;BMP180;6856;51.460;7.158;2023-06-10T04:20:17;100418.00;;;24.70
13570;BMP180;6856;51.460;7.158;2023-06-10T04:22:50;100416.00;;;24.60
13570;BMP180;6856;51.460;7.158;2023-06-10T04:25:26;100424.00;;;24.60
13570;BMP180;6856;51.460;7.158;2023-06-10T04:28:02;100425.00;;;24.60
13570;BMP180;6856;51.460;7.158;2023-06-10T04:30:37;100437.00;;;24.60
13570;BMP180;6856;51.460;7.158;2023-06-10T04:33:12;100428.00;;;24.60
13570;BMP180;6856;51.460;7.158;2023-06-10T04:35:46;100414.00;;;24.50
13570;BMP180;6856;51.460;7.158;2023-06-10T04:38:21;100427.00;;;24.50
13570;BMP180;6856;51.460;7.158;2023-06-10T04:40:56;100431.00;;;24.50
13570;BMP180;6856;51.460;7.158;2023-06-10T04:43:33;100426.00;;;24.50
13570;BMP180;6856;51.460;7.158;2023-06-10T04:46:09;100426.00;;;24.50
13570;BMP180;6856;51.460;7.158;2023-06-10T04:48:44;100429.00;;;24.50
13570;BMP180;6856;51.460;7.158;2023-06-10T04:51:20;100430.00;;;24.50
13570;BMP180;6856;51.460;7.158;2023-06-10T04:53:56;100431.00;;;24.50
13570;BMP180;6856;51.460;7.158;2023-06-10T04:56:31;100422.00;;;24.50
13570;BMP180;6856;51.460;7.158;2023-06-10T04:59:06;100432.00;;;24.40
13570;BMP180;6856;51.460;7.158;2023-06-10T05:01:40;100427.00;;;24.40
13570;BMP180;6856;51.460;7.158;2023-06-10T05:04:18;100427.00;;;24.40
13570;BMP180;6856;51.460;7.158;2023-06-10T05:06:52;100428.00;;;24.40
13570;BMP180;6856;51.460;7.158;2023-06-10T05:09:25;100421.00;;;24.40
13570;BMP180;6856;51.460;7.158;2023-06-10T05:12:00;100425.00;;;24.40
13570;BMP180;6856;51.460;7.158;2023-06-10T05:14:36;100425.00;;;24.40
13570;BMP180;6856;51.460;7.158;2023-06-10T05:17:10;100423.00;;;24.40
13570;BMP180;6856;51.460;7.158;2023-06-10T05:19:45;100426.00;;;24.40
13570;BMP180;6856;51.460;7.158;2023-06-10T05:22:20;100425.00;;;24.50
13570;BMP180;6856;51.460;7.158;2023-06-10T05:24:58;100429.00;;;24.50
13570;BMP180;6856;51.460;7.158;2023-06-10T05:27:32;100425.00;;;24.50
13570;BMP180;6856;51.460;7.158;2023-06-10T05:30:10;100430.00;;;24.50
13570;BMP180;6856;51.460;7.158;2023-06-10T05:32:45;100431.00;;;24.60
13570;BMP180;6856;51.460;7.158;2023-06-10T05:35:19;100425.00;;;24.60
13570;BMP180;6856;51.460;7.158;2023-06-10T05:37:56;100436.00;;;24.60
13570;BMP180;6856;51.460;7.158;2023-06-10T05:40:34;100441.00;;;24.70
13570;BMP180;6856;51.460;7.158;2023-06-10T05:43:09;100429.00;;;24.70
13570;BMP180;6856;51.460;7.158;2023-06-10T05:45:45;100436.00;;;24.80
13570;BMP180;6856;51.460;7.158;2023-06-10T05:48:19;100438.00;;;24.80
13570;BMP180;6856;51.460;7.158;2023-06-10T05:50:53;100420.00;;;24.80
13570;BMP180;6856;51.460;7.158;2023-06-10T05:53:28;100440.00;;;24.90
13570;BMP180;6856;51.460;7.158;2023-06-10T05:56:02;100437.00;;;24.90
13570;BMP180;6856;51.460;7.158;2023-06-10T05:58:39;100441.00;;;24.90
13570;BMP180;6856;51.460;7.158;2023-06-10T06:01:14;100447.00;;;25.00
13570;BMP180;6856;51.460;7.158;2023-06-10T06:03:48;100444.00;;;25.00
13570;BMP180;6856;51.460;7.158;2023-06-10T06:06:22;100441.00;;;25.00
13570;BMP180;6856;51.460;7.158;2023-06-10T06:08:56;100440.00;;;25.00
13570;BMP180;6856;51.460;7.158;2023-06-10T06:11:33;100439.00;;;25.00
13570;BMP180;6856;51.460;7.158;2023-06-10T06:14:07;100447.00;;;25.10
13570;BMP180;6856;51.460;7.158;2023-06-10T06:16:45;100440.00;;;25.10
13570;BMP180;6856;51.460;7.158;2023-06-10T06:19:19;100443.00;;;25.20
13570;BMP180;6856;51.460;7.158;2023-06-10T06:21:53;100441.00;;;25.20
13570;BMP180;6856;51.460;7.158;2023-06-10T06:24:29;100440.00;;;25.20
13570;BMP180;6856;51.460;7.158;2023-06-10T06:27:08;100440.00;;;25.30
13570;BMP180;6856;51.460;7.158;2023-06-10T06:29:45;100440.00;;;25.30
13570;BMP180;6856;51.460;7.158;2023-06-10T06:32:21;100436.00;;;25.40
13570;BMP180;6856;51.460;7.158;2023-06-10T06:34:58;100439.00;;;25.40
13570;BMP180;6856;51.460;7.158;2023-06-10T06:37:36;100447.00;;;25.50
13570;BMP180;6856;51.460;7.158;2023-06-10T06:40:11;100444.00;;;25.50
13570;BMP180;6856;51.460;7.158;2023-06-10T06:42:46;100451.00;;;25.60
13570;BMP180;6856;51.460;7.158;2023-06-10T06:45:25;100436.00;;;25.60
13570;BMP180;6856;51.460;7.158;2023-06-10T06:48:01;100446.00;;;25.70
13570;BMP180;6856;51.460;7.158;2023-06-10T06:50:40;100453.00;;;25.80
13570;BMP180;6856;51.460;7.158;2023-06-10T06:53:14;100453.00;;;25.80
13570;BMP180;6856;51.460;7.158;2023-06-10T06:55:50;100457.00;;;25.90
13570;BMP180;6856;51.460;7.158;2023-06-10T06:58:24;100462.00;;;26.00
13570;BMP180;6856;51.460;7.158;2023-06-10T07:01:00;100452.00;;;26.10
13570;BMP180;6856;51.460;7.158;2023-06-10T07:03:37;100460.00;;;26.20
13570;BMP180;6856;51.460;7.158;2023-06-10T07:06:13;100455.00;;;26.20
13570;BMP180;6856;51.460;7.158;2023-06-10T07:08:49;100470.00;;;26.30
13570;BMP180;6856;51.460;7.158;2023-06-10T07:11:23;100459.00;;;26.30
13570;BMP180;6856;51.460;7.158;2023-06-10T07:14:00;100459.00;;;26.40
13570;BMP180;6856;51.460;7.158;2023-06-10T07:16:34;100462.00;;;26.40
13570;BMP180;6856;51.460;7.158;2023-06-10T07:19:10;100465.00;;;26.50
13570;BMP180;6856;51.460;7.158;2023-06-10T07:21:44;100469.00;;;26.60
13570;BMP180;6856;51.460;7.158;2023-06-10T07:24:19;100460.00;;;26.60
13570;BMP180;6856;51.460;7.158;2023-06-10T07:26:53;100465.00;;;26.70
13570;BMP180;6856;51.460;7.158;2023-06-10T07:29:27;100469.00;;;26.80
13570;BMP180;6856;51.460;7.158;2023-06-10T07:32:03;100454.00;;;26.90
13570;BMP180;6856;51.460;7.158;2023-06-10T07:34:39;100472.00;;;26.90
13570;BMP180;6856;51.460;7.158;2023-06-10T07:37:13;100457.00;;;27.00
13570;BMP180;6856;51.460;7.158;2023-06-10T07:39:47;100457.00;;;27.10
13570;BMP180;6856;51.460;7.158;2023-06-10T07:42:21;100458.00;;;27.20
13570;BMP180;6856;51.460;7.158;2023-06-10T07:44:55;100465.00;;;27.30
13570;BMP180;6856;51.460;7.158;2023-06-10T07:47:29;100462.00;;;27.40
13570;BMP180;6856;51.460;7.158;2023-06-10T07:50:06;100448.00;;;27.50
13570;BMP180;6856;51.460;7.158;2023-06-10T07:52:41;100457.00;;;27.60
13570;BMP180;6856;51.460;7.158;2023-06-10T07:55:16;100454.00;;;27.70
13570;BMP180;6856;51.460;7.158;2023-06-10T07:57:50;100462.00;;;27.80
13570;BMP180;6856;51.460;7.158;2023-06-10T08:00:24;100463.00;;;27.90
13570;BMP180;6856;51.460;7.158;2023-06-10T08:02:58;100463.00;;;28.00
13570;BMP180;6856;51.460;7.158;2023-06-10T08:05:36;100471.00;;;28.10
13570;BMP180;6856;51.460;7.158;2023-06-10T08:08:09;100465.00;;;28.20
13570;BMP180;6856;51.460;7.158;2023-06-10T08:10:43;100465.00;;;28.30
13570;BMP180;6856;51.460;7.158;2023-06-10T08:13:17;100464.00;;;28.30
13570;BMP180;6856;51.460;7.158;2023-06-10T08:15:51;100474.00;;;28.40
13570;BMP180;6856;51.460;7.158;2023-06-10T08:18:27;100471.00;;;28.50
13570;BMP180;6856;51.460;7.158;2023-06-10T08:21:03;100467.00;;;28.50
13570;BMP180;6856;51.460;7.158;2023-06-10T08:23:38;100472.00;;;28.60
13570;BMP180;6856;51.460;7.158;2023-06-10T08:26:14;100476.00;;;28.70
13570;BMP180;6856;51.460;7.158;2023-06-10T08:28:49;100478.00;;;28.80
13570;BMP180;6856;51.460;7.158;2023-06-10T08:31:25;100472.00;;;28.90
13570;BMP180;6856;51.460;7.158;2023-06-10T08:34:01;100473.00;;;28.90
13570;BMP180;6856;51.460;7.158;2023-06-10T08:36:36;100470.00;;;29.10
13570;BMP180;6856;51.460;7.158;2023-06-10T08:39:10;100467.00;;;29.20
13570;BMP180;6856;51.460;7.158;2023-06-10T08:41:51;100472.00;;;29.30
13570;BMP180;6856;51.460;7.158;2023-06-10T08:44:30;100478.00;;;29.40
13570;BMP180;6856;51.460;7.158;2023-06-10T08:47:13;100459.00;;;29.50
13570;BMP180;6856;51.460;7.158;2023-06-10T08:49:48;100482.00;;;29.60
13570;BMP180;6856;51.460;7.158;2023-06-10T08:52:27;100468.00;;;29.70
13570;BMP180;6856;51.460;7.158;2023-06-10T08:55:11;100478.00;;;29.80
13570;BMP180;6856;51.460;7.158;2023-06-10T08:57:46;100480.00;;;29.90
13570;BMP180;6856;51.460;7.158;2023-06-10T09:00:21;100472.00;;;30.00
13570;BMP180;6856;51.460;7.158;2023-06-10T09:02:56;100476.00;;;30.10
13570;BMP180;6856;51.460;7.158;2023-06-10T09:05:34;100475.00;;;30.20
13570;BMP180;6856;51.460;7.158;2023-06-10T09:08:10;100474.00;;;30.30
13570;BMP180;6856;51.460;7.158;2023-06-10T09:10:45;100466.00;;;30.40
13570;BMP180;6856;51.460;7.158;2023-06-10T09:13:19;100471.00;;;30.50
13570;BMP180;6856;51.460;7.158;2023-06-10T09:15:53;100465.00;;;30.60
13570;BMP180;6856;51.460;7.158;2023-06-10T09:18:29;100472.00;;;30.70
13570;BMP180;6856;51.460;7.158;2023-06-10T09:21:07;100472.00;;;30.80
13570;BMP180;6856;51.460;7.158;2023-06-10T09:23:43;100465.00;;;30.90
13570;BMP180;6856;51.460;7.158;2023-06-10T09:26:19;100463.00;;;31.00
13570;BMP180;6856;51.460;7.158;2023-06-10T09:29:03;100461.00;;;31.20
13570;BMP180;6856;51.460;7.158;2023-06-10T09:31:39;100466.00;;;31.30
13570;BMP180;6856;51.460;7.158;2023-06-10T09:34:15;100473.00;;;31.40
13570;BMP180;6856;51.460;7.158;2023-06-10T09:36:50;100470.00;;;31.50
13570;BMP180;6856;51.460;7.158;2023-06-10T09:39:26;100466.00;;;31.60
13570;BMP180;6856;51.460;7.158;2023-06-10T09:42:00;100466.00;;;31.70
13570;BMP180;6856;51.460;7.158;2023-06-10T09:44:34;100471.00;;;31.80
13570;BMP180;6856;51.460;7.158;2023-06-10T09:47:08;100466.00;;;31.90
13570;BMP180;6856;51.460;7.158;2023-06-10T09:49:44;100463.00;;;32.00
13570;BMP180;6856;51.460;7.158;2023-06-10T09:52:22;100470.00;;;32.10
13570;BMP180;6856;51.460;7.158;2023-06-10T09:55:08;100436.00;;;32.20
13570;BMP180;6856;51.460;7.158;2023-06-10T09:57:42;100473.00;;;32.30
13570;BMP180;6856;51.460;7.158;2023-06-10T10:00:22;100468.00;;;32.40
13570;BMP180;6856;51.460;7.158;2023-06-10T10:03:00;100461.00;;;32.40
13570;BMP180;6856;51.460;7.158;2023-06-10T10:05:34;100463.00;;;32.50
13570;BMP180;6856;51.460;7.158;2023-06-10T10:08:09;100467.00;;;32.60
13570;BMP180;6856;51.460;7.158;2023-06-10T10:10:44;100463.00;;;32.60
13570;BMP180;6856;51.460;7.158;2023-06-10T10:13:19;100467.00;;;32.70
13570;BMP180;6856;51.460;7.158;2023-06-10T10:15:57;100470.00;;;32.80
13570;BMP180;6856;51.460;7.158;2023-06-10T10:18:41;100460.00;;;32.80
13570;BMP180;6856;51.460;7.158;2023-06-10T10:21:21;100442.00;;;32.90
13570;BMP180;6856;51.460;7.158;2023-06-10T10:24:05;100460.00;;;33.00
13570;BMP180;6856;51.460;7.158;2023-06-10T10:26:47;100465.00;;;33.00
13570;BMP180;6856;51.460;7.158;2023-06-10T10:29:28;100465.00;;;33.10
13570;BMP180;6856;51.460;7.158;2023-06-10T10:32:07;100466.00;;;33.20
13570;BMP180;6856;51.460;7.158;2023-06-10T10:34:49;100457.00;;;33.30
13570;BMP180;6856;51.460;7.158;2023-06-10T10:37:26;100459.00;;;33.40
13570;BMP180;6856;51.460;7.158;2023-06-10T10:40:01;100457.00;;;33.40
13570;BMP180;6856;51.460;7.158;2023-06-10T10:42:40;100463.00;;;33.50
13570;BMP180;6856;51.460;7.158;2023-06-10T10:45:22;100457.00;;;33.60
13570;BMP180;6856;51.460;7.158;2023-06-10T10:47:56;100452.00;;;33.70
13570;BMP180;6856;51.460;7.158;2023-06-10T10:50:32;100445.00;;;33.80
13570;BMP180;6856;51.460;7.158;2023-06-10T10:53:07;100441.00;;;33.90
13570;BMP180;6856;51.460;7.158;2023-06-10T10:55:58;100457.00;;;34.00
13570;BMP180;6856;51.460;7.158;2023-06-10T10:58:34;100449.00;;;34.10
13570;BMP180;6856;51.460;7.158;2023-06-10T11:01:12;100445.00;;;34.10
13570;BMP180;6856;51.460;7.158;2023-06-10T11:03:49;100433.00;;;34.20
13570;BMP180;6856;51.460;7.158;2023-06-10T11:06:23;100446.00;;;34.30
13570;BMP180;6856;51.460;7.158;2023-06-10T11:08:56;100441.00;;;34.30
13570;BMP180;6856;51.460;7.158;2023-06-10T11:11:49;100441.00;;;34.40
13570;BMP180;6856;51.460;7.158;2023-06-10T11:14:29;100439.00;;;34.50
13570;BMP180;6856;51.460;7.158;2023-06-10T11:17:18;100439.00;;;34.60
13570;BMP180;6856;51.460;7.158;2023-06-10T11:19:53;100423.00;;;34.60
13570;BMP180;6856;51.460;7.158;2023-06-10T11:22:27;100431.00;;;34.70
13570;BMP180;6856;51.460;7.158;2023-06-10T11:25:01;100437.00;;;34.70
13570;BMP180;6856;51.460;7.158;2023-06-10T11:27:38;100434.00;;;34.70
13570;BMP180;6856;51.460;7.158;2023-06-10T11:30:26;100427.00;;;34.70
13570;BMP180;6856;51.460;7.158;2023-06-10T11:32:59;100429.00;;;34.80
13570;BMP180;6856;51.460;7.158;2023-06-10T11:35:34;100427.00;;;34.80
13570;BMP180;6856;51.460;7.158;2023-06-10T11:38:08;100430.00;;;34.90
13570;BMP180;6856;51.460;7.158;2023-06-10T11:40:48;100423.00;;;34.90
13570;BMP180;6856;51.460;7.158;2023-06-10T11:43:22;100413.00;;;34.90
13570;BMP180;6856;51.460;7.158;2023-06-10T11:45:59;100420.00;;;35.00
13570;BMP180;6856;51.460;7.158;2023-06-10T11:48:34;100426.00;;;35.00
13570;BMP180;6856;51.460;7.158;2023-06-10T11:51:09;100425.00;;;35.10
13570;BMP180;6856;51.460;7.158;2023-06-10T11:53:44;100421.00;;;35.10
13570;BMP180;6856;51.460;7.158;2023-06-10T11:56:20;100417.00;;;35.20
13570;BMP180;6856;51.460;7.158;2023-06-10T11:58:56;100422.00;;;35.30
13570;BMP180;6856;51.460;7.158;2023-06-10T12:01:35;100408.00;;;35.40
13570;BMP180;6856;51.460;7.158;2023-06-10T12:04:16;100427.00;;;35.50
13570;BMP180;6856;51.460;7.158;2023-06-10T12:06:53;100416.00;;;35.50
13570;BMP180;6856;51.460;7.158;2023-06-10T12:09:29;100411.00;;;35.50
13570;BMP180;6856;51.460;7.158;2023-06-10T12:12:07;100412.00;;;35.50
13570;BMP180;6856;51.460;7.158;2023-06-10T12:15:00;100411.00;;;35.50
13570;BMP180;6856;51.460;7.158;2023-06-10T12:17:39;100417.00;;;35.60
13570;BMP180;6856;51.460;7.158;2023-06-10T12:20:26;100411.00;;;35.60
13570;BMP180;6856;51.460;7.158;2023-06-10T12:23:00;100403.00;;;35.60
13570;BMP180;6856;51.460;7.158;2023-06-10T12:25:51;100403.00;;;35.70
13570;BMP180;6856;51.460;7.158;2023-06-10T12:28:27;100409.00;;;35.70
13570;BMP180;6856;51.460;7.158;2023-06-10T12:31:07;100403.00;;;35.70
13570;BMP180;6856;51.460;7.158;2023-06-10T12:33:43;100398.00;;;35.70
13570;BMP180;6856;51.460;7.158;2023-06-10T12:36:19;100397.00;;;35.80
13570;BMP180;6856;51.460;7.158;2023-06-10T12:39:03;100397.00;;;35.90
13570;BMP180;6856;51.460;7.158;2023-06-10T12:41:38;100387.00;;;35.90
13570;BMP180;6856;51.460;7.158;2023-06-10T12:44:15;100395.00;;;36.00
13570;BMP180;6856;51.460;7.158;2023-06-10T12:46:55;100389.00;;;35.90
13570;BMP180;6856;51.460;7.158;2023-06-10T12:49:31;100388.00;;;35.90
13570;BMP180;6856;51.460;7.158;2023-06-10T12:52:06;100383.00;;;36.00
13570;BMP180;6856;51.460;7.158;2023-06-10T12:54:41;100383.00;;;36.00
13570;BMP180;6856;51.460;7.158;2023-06-10T12:57:15;100381.00;;;36.00
13570;BMP180;6856;51.460;7.158;2023-06-10T12:59:49;100381.00;;;36.00
13570;BMP180;6856;51.460;7.158;2023-06-10T13:02:25;100392.00;;;36.00
13570;BMP180;6856;51.460;7.158;2023-06-10T13:05:01;100384.00;;;36.00
13570;BMP180;6856;51.460;7.158;2023-06-10T13:07:35;100384.00;;;36.00
13570;BMP180;6856;51.460;7.158;2023-06-10T13:10:09;100384.00;;;36.00
13570;BMP180;6856;51.460;7.158;2023-06-10T13:12:45;100383.00;;;36.00
13570;BMP180;6856;51.460;7.158;2023-06-10T13:15:20;100386.00;;;36.10
13570;BMP180;6856;51.460;7.158;2023-06-10T13:17:54;100375.00;;;36.10
13570;BMP180;6856;51.460;7.158;2023-06-10T13:20:30;100374.00;;;36.00
13570;BMP180;6856;51.460;7.158;2023-06-10T13:23:08;100362.00;;;36.00
13570;BMP180;6856;51.460;7.158;2023-06-10T13:25:43;100370.00;;;36.10
13570;BMP180;6856;51.460;7.158;2023-06-10T13:28:17;100369.00;;;36.10
13570;BMP180;6856;51.460;7.158;2023-06-10T13:30:51;100366.00;;;36.10
13570;BMP180;6856;51.460;7.158;2023-06-10T13:33:25;100368.00;;;36.10
13570;BMP180;6856;51.460;7.158;2023-06-10T13:36:01;100369.00;;;36.10
13570;BMP180;6856;51.460;7.158;2023-06-10T13:38:34;100373.00;;;36.20
13570;BMP180;6856;51.460;7.158;2023-06-10T13:41:08;100367.00;;;36.20
13570;BMP180;6856;51.460;7.158;2023-06-10T13:43:42;100376.00;;;36.20
13570;BMP180;6856;51.460;7.158;2023-06-10T13:46:16;100373.00;;;36.20
13570;BMP180;6856;51.460;7.158;2023-06-10T13:48:51;100363.00;;;36.20
13570;BMP180;6856;51.460;7.158;2023-06-10T13:51:26;100357.00;;;36.20
13570;BMP180;6856;51.460;7.158;2023-06-10T13:54:00;100356.00;;;36.20
13570;BMP180;6856;51.460;7.158;2023-06-10T13:56:34;100356.00;;;36.20
13570;BMP180;6856;51.460;7.158;2023-06-10T13:59:11;100363.00;;;36.20
13570;BMP180;6856;51.460;7.158;2023-06-10T14:01:45;100369.00;;;36.20
13570;BMP180;6856;51.460;7.158;2023-06-10T14:04:19;100361.00;;;36.20
13570;BMP180;6856;51.460;7.158;2023-06-10T14:06:55;100358.00;;;36.10
13570;BMP180;6856;51.460;7.158;2023-06-10T14:09:30;100353.00;;;36.10
13570;BMP180;6856;51.460;7.158;2023-06-10T14:12:07;100345.00;;;36.10
13570;BMP180;6856;51.460;7.158;2023-06-10T14:14:41;100347.00;;;36.10
13570;BMP180;6856;51.460;7.158;2023-06-10T14:17:15;100354.00;;;36.00
13570;BMP180;6856;51.460;7.158;2023-06-10T14:19:49;100348.00;;;36.00
13570;BMP180;6856;51.460;7.158;2023-06-10T14:22:23;100348.00;;;36.00
13570;BMP180;6856;51.460;7.158;2023-06-10T14:24:58;100339.00;;;35.90
13570;BMP180;6856;51.460;7.158;2023-06-10T14:27:32;100347.00;;;35.90
13570;BMP180;6856;51.460;7.158;2023-06-10T14:30:08;100348.00;;;35.80
13570;BMP180;6856;51.460;7.158;2023-06-10T14:32:42;100345.00;;;35.80
13570;BMP180;6856;51.460;7.158;2023-06-10T14:35:16;100339.00;;;35.80
13570;BMP180;6856;51.460;7.158;2023-06-10T14:37:52;100349.00;;;35.80
13570;BMP180;6856;51.460;7.158;2023-06-10T14:40:26;100345.00;;;35.70
13570;BMP180;6856;51.460;7.158;2023-06-10T14:43:01;100339.00;;;35.70
13570;BMP180;6856;51.460;7.158;2023-06-10T14:45:43;100343.00;;;35.80
13570;BMP180;6856;51.460;7.158;2023-06-10T14:48:17;100345.00;;;35.80
13570;BMP180;6856;51.460;7.158;2023-06-10T14:50:51;100334.00;;;35.70
13570;BMP180;6856;51.460;7.158;2023-06-10T14:53:29;100335.00;;;35.70
13570;BMP180;6856;51.460;7.158;2023-06-10T14:56:04;100347.00;;;35.70
13570;BMP180;6856;51.460;7.158;2023-06-10T14:58:38;100337.00;;;35.70